sensor_id;sensor_type;location;lat;lon;timestamp;pressure;altitude;pressure_sealevel;temperature;humidity
82245;BME280;71849;50.096;14.458;2023-11-22T00:00:28;99936.72;;;4.61;64.28
82245;BME280;71849;50.096;14.458;2023-11-22T00:02:57;99931.03;;;4.33;65.22
82245;BME280;71849;50.096;14.458;2023-11-22T00:05:25;99934.22;;;4.36;65.30
82245;BME280;71849;50.096;14.458;2023-11-22T00:07:56;99950.00;;;4.62;64.73
82245;BME280;71849;50.096;14.458;2023-11-22T00:10:25;99933.31;;;4.44;64.52
82245;BME280;71849;50.096;14.458;2023-11-22T00:12:54;99931.59;;;4.28;64.99
82245;BME280;71849;50.096;14.458;2023-11-22T00:15:24;99940.88;;;4.49;64.77
82245;BME280;71849;50.096;14.458;2023-11-22T00:17:52;99954.75;;;4.60;63.96
82245;BME280;71849;50.096;14.458;2023-11-22T00:20:23;99947.50;;;4.61;63.66
82245;BME280;71849;50.096;14.458;2023-11-22T00:22:52;99952.66;;;4.25;64.62
82245;BME280;71849;50.096;14.458;2023-11-22T00:25:23;99947.81;;;5.03;62.50
82245;BME280;71849;50.096;14.458;2023-11-22T00:27:52;99964.69;;;4.37;63.81
82245;BME280;71849;50.096;14.458;2023-11-22T00:30:21;99970.94;;;4.60;63.02
82245;BME280;71849;50.096;14.458;2023-11-22T00:32:49;99972.13;;;4.58;62.86
82245;BME280;71849;50.096;14.458;2023-11-22T00:35:18;99965.06;;;4.34;62.62
82245;BME280;71849;50.096;14.458;2023-11-22T00:37:46;99979.44;;;4.49;62.96
82245;BME280;71849;50.096;14.458;2023-11-22T00:40:15;99967.41;;;4.37;62.68
82245;BME280;71849;50.096;14.458;2023-11-22T00:42:46;99972.50;;;4.01;63.69
82245;BME280;71849;50.096;14.458;2023-11-22T00:45:15;99963.78;;;4.45;62.32
82245;BME280;71849;50.096;14.458;2023-11-22T00:47:44;99985.25;;;4.07;63.50
82245;BME280;71849;50.096;14.458;2023-11-22T00:50:13;99976.84;;;4.33;63.24
82245;BME280;71849;50.096;14.458;2023-11-22T00:52:45;99971.47;;;4.33;62.76
82245;BME280;71849;50.096;14.458;2023-11-22T00:55:14;99967.34;;;4.22;63.23
82245;BME280;71849;50.096;14.458;2023-11-22T00:57:42;99980.28;;;4.50;62.36
82245;BME280;71849;50.096;14.458;2023-11-22T01:00:14;99974.88;;;3.96;63.54
82245;BME280;71849;50.096;14.458;2023-11-22T01:02:43;99985.69;;;4.19;63.51
82245;BME280;71849;50.096;14.458;2023-11-22T01:05:11;99983.13;;;3.95;63.86
82245;BME280;71849;50.096;14.458;2023-11-22T01:07:41;99979.06;;;3.60;64.35
82245;BME280;71849;50.096;14.458;2023-11-22T01:10:10;99988.53;;;3.86;64.13
82245;BME280;71849;50.096;14.458;2023-11-22T01:12:39;99986.53;;;3.89;63.87
82245;BME280;71849;50.096;14.458;2023-11-22T01:15:08;99981.63;;;3.92;63.88
82245;BME280;71849;50.096;14.458;2023-11-22T01:17:40;99983.00;;;3.88;63.67
82245;BME280;71849;50.096;14.458;2023-11-22T01:20:09;99968.53;;;3.81;64.26
82245;BME280;71849;50.096;14.458;2023-11-22T01:22:39;99993.00;;;4.02;63.83
82245;BME280;71849;50.096;14.458;2023-11-22T01:25:08;99998.84;;;3.75;64.47
82245;BME280;71849;50.096;14.458;2023-11-22T01:27:36;100024.31;;;3.48;65.87
82245;BME280;71849;50.096;14.458;2023-11-22T01:30:06;100018.22;;;3.70;65.26
82245;BME280;71849;50.096;14.458;2023-11-22T01:32:35;100005.56;;;3.71;65.28
82245;BME280;71849;50.096;14.458;2023-11-22T01:35:07;100023.03;;;3.91;64.77
82245;BME280;71849;50.096;14.458;2023-11-22T01:37:36;100003.66;;;3.49;65.61
82245;BME280;71849;50.096;14.458;2023-11-22T01:40:06;100018.63;;;3.98;64.92
82245;BME280;71849;50.096;14.458;2023-11-22T01:42:35;100018.59;;;3.51;65.56
82245;BME280;71849;50.096;14.458;2023-11-22T01:45:06;100002.50;;;3.43;65.91
82245;BME280;71849;50.096;14.458;2023-11-22T01:47:36;100015.47;;;3.15;67.17
82245;BME280;71849;50.096;14.458;2023-11-22T01:50:08;100007.47;;;3.62;65.74
82245;BME280;71849;50.096;14.458;2023-11-22T01:52:38;100026.41;;;3.77;65.55
82245;BME280;71849;50.096;14.458;2023-11-22T01:55:09;100026.47;;;3.69;65.29
82245;BME280;71849;50.096;14.458;2023-11-22T01:57:37;100033.84;;;4.14;64.00
82245;BME280;71849;50.096;14.458;2023-11-22T02:00:07;100026.31;;;3.70;64.92
82245;BME280;71849;50.096;14.458;2023-11-22T02:02:40;100030.44;;;3.89;64.95
82245;BME280;71849;50.096;14.458;2023-11-22T02:05:11;100033.94;;;3.98;64.62
82245;BME280;71849;50.096;14.458;2023-11-22T02:07:40;100028.25;;;3.84;64.93
82245;BME280;71849;50.096;14.458;2023-11-22T02:10:09;100026.47;;;4.08;64.58
82245;BME280;71849;50.096;14.458;2023-11-22T02:12:38;100042.97;;;3.50;65.51
82245;BME280;71849;50.096;14.458;2023-11-22T02:15:07;100050.19;;;3.73;65.42
82245;BME280;71849;50.096;14.458;2023-11-22T02:17:37;100050.38;;;3.56;65.51
82245;BME280;71849;50.096;14.458;2023-11-22T02:20:06;100057.69;;;3.86;64.51
82245;BME280;71849;50.096;14.458;2023-11-22T02:22:45;100058.72;;;3.85;63.24
82245;BME280;71849;50.096;14.458;2023-11-22T02:25:16;100065.28;;;3.74;62.53
82245;BME280;71849;50.096;14.458;2023-11-22T02:27:45;100071.28;;;4.01;62.61
82245;BME280;71849;50.096;14.458;2023-11-22T02:30:14;100069.53;;;3.53;62.75
82245;BME280;71849;50.096;14.458;2023-11-22T02:32:44;100078.06;;;3.80;62.67
82245;BME280;71849;50.096;14.458;2023-11-22T02:35:12;100080.03;;;4.03;61.17
82245;BME280;71849;50.096;14.458;2023-11-22T02:37:41;100087.91;;;3.49;62.17
82245;BME280;71849;50.096;14.458;2023-11-22T02:40:19;100084.28;;;3.89;61.29
82245;BME280;71849;50.096;14.458;2023-11-22T02:42:48;100102.47;;;3.79;61.32
82245;BME280;71849;50.096;14.458;2023-11-22T02:45:18;100099.59;;;3.89;61.49
82245;BME280;71849;50.096;14.458;2023-11-22T02:47:48;100091.53;;;3.89;60.98
82245;BME280;71849;50.096;14.458;2023-11-22T02:50:18;100100.16;;;3.60;62.45
82245;BME280;71849;50.096;14.458;2023-11-22T02:52:46;100107.88;;;3.71;61.87
82245;BME280;71849;50.096;14.458;2023-11-22T02:55:15;100118.28;;;3.82;61.59
82245;BME280;71849;50.096;14.458;2023-11-22T02:57:47;100107.28;;;4.08;60.50
82245;BME280;71849;50.096;14.458;2023-11-22T03:00:17;100111.25;;;3.73;60.92
82245;BME280;71849;50.096;14.458;2023-11-22T03:02:46;100109.53;;;3.80;60.63
82245;BME280;71849;50.096;14.458;2023-11-22T03:05:17;100111.84;;;3.99;60.11
82245;BME280;71849;50.096;14.458;2023-11-22T03:07:45;100112.00;;;4.53;58.54
82245;BME280;71849;50.096;14.458;2023-11-22T03:10:17;100117.66;;;3.64;60.71
82245;BME280;71849;50.096;14.458;2023-11-22T03:12:48;100131.63;;;3.67;60.54
82245;BME280;71849;50.096;14.458;2023-11-22T03:15:17;100111.06;;;2.78;63.34
82245;BME280;71849;50.096;14.458;2023-11-22T03:17:46;100127.41;;;3.16;62.84
82245;BME280;71849;50.096;14.458;2023-11-22T03:20:15;100133.81;;;3.40;61.91
82245;BME280;71849;50.096;14.458;2023-11-22T03:22:41;100142.72;;;3.16;63.31
82245;BME280;71849;50.096;14.458;2023-11-22T03:25:10;100138.97;;;2.93;64.53
82245;BME280;71849;50.096;14.458;2023-11-22T03:27:39;100148.78;;;3.34;63.40
82245;BME280;71849;50.096;14.458;2023-11-22T03:30:11;100140.00;;;3.00;64.88
82245;BME280;71849;50.096;14.458;2023-11-22T03:32:40;100146.41;;;3.47;64.02
82245;BME280;71849;50.096;14.458;2023-11-22T03:35:09;100145.22;;;3.25;65.29
82245;BME280;71849;50.096;14.458;2023-11-22T03:37:38;100138.81;;;3.02;66.94
82245;BME280;71849;50.096;14.458;2023-11-22T03:40:08;100155.28;;;2.99;67.86
82245;BME280;71849;50.096;14.458;2023-11-22T03:42:37;100149.28;;;3.21;67.58
82245;BME280;71849;50.096;14.458;2023-11-22T03:45:09;100151.75;;;2.99;68.68
82245;BME280;71849;50.096;14.458;2023-11-22T03:47:39;100161.06;;;3.37;67.66
82245;BME280;71849;50.096;14.458;2023-11-22T03:50:08;100177.00;;;3.30;67.16
82245;BME280;71849;50.096;14.458;2023-11-22T03:52:37;100180.38;;;3.56;65.88
82245;BME280;71849;50.096;14.458;2023-11-22T03:55:06;100189.94;;;3.18;66.72
82245;BME280;71849;50.096;14.458;2023-11-22T03:57:35;100186.94;;;3.54;65.93
82245;BME280;71849;50.096;14.458;2023-11-22T04:00:05;100186.13;;;3.61;64.31
82245;BME280;71849;50.096;14.458;2023-11-22T04:02:37;100189.13;;;3.50;65.20
82245;BME280;71849;50.096;14.458;2023-11-22T04:05:08;100190.75;;;3.03;65.58
82245;BME280;71849;50.096;14.458;2023-11-22T04:07:36;100198.38;;;3.40;65.23
82245;BME280;71849;50.096;14.458;2023-11-22T04:10:08;100197.88;;;3.60;64.32
82245;BME280;71849;50.096;14.458;2023-11-22T04:12:37;100207.28;;;3.97;62.73
82245;BME280;71849;50.096;14.458;2023-11-22T04:15:07;100202.91;;;4.04;62.20
82245;BME280;71849;50.096;14.458;2023-11-22T04:17:39;100199.88;;;3.74;62.85
82245;BME280;71849;50.096;14.458;2023-11-22T04:20:09;100203.44;;;3.43;62.89
82245;BME280;71849;50.096;14.458;2023-11-22T04:22:40;100201.25;;;3.78;62.68
82245;BME280;71849;50.096;14.458;2023-11-22T04:25:10;100205.63;;;3.88;61.82
82245;BME280;71849;50.096;14.458;2023-11-22T04:27:39;100202.75;;;3.81;61.59
82245;BME280;71849;50.096;14.458;2023-11-22T04:30:09;100206.28;;;3.90;61.45
82245;BME280;71849;50.096;14.458;2023-11-22T04:32:41;100194.94;;;4.34;59.86
82245;BME280;71849;50.096;14.458;2023-11-22T04:35:10;100199.03;;;3.74;60.63
82245;BME280;71849;50.096;14.458;2023-11-22T04:37:39;100196.19;;;3.83;60.46
82245;BME280;71849;50.096;14.458;2023-11-22T04:40:11;100200.75;;;3.43;61.58
82245;BME280;71849;50.096;14.458;2023-11-22T04:42:42;100206.75;;;3.28;61.49
82245;BME280;71849;50.096;14.458;2023-11-22T04:45:14;100212.00;;;3.54;61.24
82245;BME280;71849;50.096;14.458;2023-11-22T04:47:45;100236.66;;;3.17;62.31
82245;BME280;71849;50.096;14.458;2023-11-22T04:50:14;100229.78;;;3.15;62.55
82245;BME280;71849;50.096;14.458;2023-11-22T04:52:43;100219.38;;;3.28;62.20
82245;BME280;71849;50.096;14.458;2023-11-22T04:55:12;100236.19;;;3.30;62.18
82245;BME280;71849;50.096;14.458;2023-11-22T04:57:40;100246.63;;;3.25;62.43
82245;BME280;71849;50.096;14.458;2023-11-22T05:00:10;100246.34;;;3.52;62.16
82245;BME280;71849;50.096;14.458;2023-11-22T05:02:39;100256.72;;;3.47;61.83
82245;BME280;71849;50.096;14.458;2023-11-22T05:05:11;100252.03;;;3.49;62.63
82245;BME280;71849;50.096;14.458;2023-11-22T05:07:39;100266.44;;;3.32;62.45
82245;BME280;71849;50.096;14.458;2023-11-22T05:10:10;100263.25;;;3.28;62.77
82245;BME280;71849;50.096;14.458;2023-11-22T05:12:39;100268.34;;;3.48;62.72
82245;BME280;71849;50.096;14.458;2023-11-22T05:15:09;100269.00;;;3.34;63.27
82245;BME280;71849;50.096;14.458;2023-11-22T05:17:39;100285.22;;;3.82;62.11
82245;BME280;71849;50.096;14.458;2023-11-22T05:20:11;100279.44;;;3.37;63.29
82245;BME280;71849;50.096;14.458;2023-11-22T05:22:40;100303.16;;;2.99;64.48
82245;BME280;71849;50.096;14.458;2023-11-22T05:25:08;100296.75;;;2.92;65.02
82245;BME280;71849;50.096;14.458;2023-11-22T05:27:37;100300.44;;;3.41;63.59
82245;BME280;71849;50.096;14.458;2023-11-22T05:30:07;100312.56;;;3.37;63.22
82245;BME280;71849;50.096;14.458;2023-11-22T05:32:36;100319.28;;;3.41;63.56
82245;BME280;71849;50.096;14.458;2023-11-22T05:35:05;100324.22;;;3.70;62.80
82245;BME280;71849;50.096;14.458;2023-11-22T05:37:38;100318.22;;;3.26;63.72
82245;BME280;71849;50.096;14.458;2023-11-22T05:40:08;100327.41;;;3.57;62.95
82245;BME280;71849;50.096;14.458;2023-11-22T05:42:37;100325.44;;;3.25;64.07
82245;BME280;71849;50.096;14.458;2023-11-22T05:45:07;100335.59;;;3.40;64.34
82245;BME280;71849;50.096;14.458;2023-11-22T05:47:36;100328.38;;;3.48;63.87
82245;BME280;71849;50.096;14.458;2023-11-22T05:50:05;100335.28;;;3.43;64.56
82245;BME280;71849;50.096;14.458;2023-11-22T05:52:33;100337.69;;;3.70;63.38
82245;BME280;71849;50.096;14.458;2023-11-22T05:55:06;100341.63;;;3.34;64.94
82245;BME280;71849;50.096;14.458;2023-11-22T05:57:34;100344.22;;;3.59;64.33
82245;BME280;71849;50.096;14.458;2023-11-22T06:00:04;100346.28;;;3.15;64.43
82245;BME280;71849;50.096;14.458;2023-11-22T06:02:33;100355.72;;;2.86;65.95
82245;BME280;71849;50.096;14.458;2023-11-22T06:05:02;100363.25;;;3.16;65.05
82245;BME280;71849;50.096;14.458;2023-11-22T06:07:31;100360.25;;;2.93;65.39
82245;BME280;71849;50.096;14.458;2023-11-22T06:09:59;100353.38;;;2.91;65.90
82245;BME280;71849;50.096;14.458;2023-11-22T06:12:31;100362.91;;;3.61;63.44
82245;BME280;71849;50.096;14.458;2023-11-22T06:15:00;100355.31;;;3.14;64.24
82245;BME280;71849;50.096;14.458;2023-11-22T06:17:30;100352.72;;;3.39;64.10
82245;BME280;71849;50.096;14.458;2023-11-22T06:19:58;100355.69;;;3.19;63.96
82245;BME280;71849;50.096;14.458;2023-11-22T06:22:28;100351.56;;;2.99;64.52
82245;BME280;71849;50.096;14.458;2023-11-22T06:24:57;100357.06;;;3.31;63.63
82245;BME280;71849;50.096;14.458;2023-11-22T06:27:26;100370.06;;;3.36;63.54
82245;BME280;71849;50.096;14.458;2023-11-22T06:29:57;100374.44;;;3.03;64.06
82245;BME280;71849;50.096;14.458;2023-11-22T06:32:26;100368.31;;;3.19;64.32
82245;BME280;71849;50.096;14.458;2023-11-22T06:34:55;100375.53;;;3.68;62.66
82245;BME280;71849;50.096;14.458;2023-11-22T06:37:23;100369.53;;;3.82;62.00
82245;BME280;71849;50.096;14.458;2023-11-22T06:39:53;100369.81;;;3.63;62.30
82245;BME280;71849;50.096;14.458;2023-11-22T06:42:23;100383.31;;;3.79;61.99
82245;BME280;71849;50.096;14.458;2023-11-22T06:44:52;100387.56;;;3.40;63.38
82245;BME280;71849;50.096;14.458;2023-11-22T06:47:27;100386.53;;;3.07;63.80
82245;BME280;71849;50.096;14.458;2023-11-22T06:49:55;100389.97;;;3.17;64.26
82245;BME280;71849;50.096;14.458;2023-11-22T06:52:24;100385.53;;;3.42;63.50
82245;BME280;71849;50.096;14.458;2023-11-22T06:54:53;100389.78;;;3.53;63.16
82245;BME280;71849;50.096;14.458;2023-11-22T06:57:21;100388.56;;;3.39;63.29
82245;BME280;71849;50.096;14.458;2023-11-22T06:59:54;100393.91;;;3.31;63.64
82245;BME280;71849;50.096;14.458;2023-11-22T07:02:26;100390.91;;;3.34;63.41
82245;BME280;71849;50.096;14.458;2023-11-22T07:04:55;100396.31;;;3.50;63.03
82245;BME280;71849;50.096;14.458;2023-11-22T07:07:25;100386.16;;;3.86;62.21
82245;BME280;71849;50.096;14.458;2023-11-22T07:09:53;100391.31;;;3.55;62.48
82245;BME280;71849;50.096;14.458;2023-11-22T07:12:24;100405.25;;;3.17;63.55
82245;BME280;71849;50.096;14.458;2023-11-22T07:14:52;100415.97;;;3.09;64.82
82245;BME280;71849;50.096;14.458;2023-11-22T07:17:21;100417.06;;;3.24;64.65
82245;BME280;71849;50.096;14.458;2023-11-22T07:19:55;100411.50;;;3.25;64.86
82245;BME280;71849;50.096;14.458;2023-11-22T07:22:24;100426.97;;;3.57;63.64
82245;BME280;71849;50.096;14.458;2023-11-22T07:24:53;100423.09;;;3.52;63.37
82245;BME280;71849;50.096;14.458;2023-11-22T07:27:27;100436.03;;;3.48;63.74
82245;BME280;71849;50.096;14.458;2023-11-22T07:29:57;100457.75;;;3.55;63.73
82245;BME280;71849;50.096;14.458;2023-11-22T07:32:26;100464.94;;;3.46;63.78
82245;BME280;71849;50.096;14.458;2023-11-22T07:34:58;100466.44;;;3.15;64.35
82245;BME280;71849;50.096;14.458;2023-11-22T07:37:28;100485.09;;;2.91;65.65
82245;BME280;71849;50.096;14.458;2023-11-22T07:39:57;100471.13;;;3.39;64.46
82245;BME280;71849;50.096;14.458;2023-11-22T07:42:26;100473.97;;;3.37;64.10
82245;BME280;71849;50.096;14.458;2023-11-22T07:44:55;100491.69;;;3.48;64.31
82245;BME280;71849;50.096;14.458;2023-11-22T07:47:24;100494.41;;;3.56;64.08
82245;BME280;71849;50.096;14.458;2023-11-22T07:49:54;100485.63;;;3.20;64.83
82245;BME280;71849;50.096;14.458;2023-11-22T07:52:25;100477.88;;;3.43;64.62
82245;BME280;71849;50.096;14.458;2023-11-22T07:54:55;100481.84;;;3.30;65.04
82245;BME280;71849;50.096;14.458;2023-11-22T07:57:24;100485.41;;;3.39;64.63
82245;BME280;71849;50.096;14.458;2023-11-22T07:59:54;100485.63;;;3.46;64.60
82245;BME280;71849;50.096;14.458;2023-11-22T08:02:25;100462.72;;;3.83;63.61
82245;BME280;71849;50.096;14.458;2023-11-22T08:04:54;100444.72;;;3.76;63.93
82245;BME280;71849;50.096;14.458;2023-11-22T08:07:25;100450.09;;;3.76;63.65
82245;BME280;71849;50.096;14.458;2023-11-22T08:09:54;100462.28;;;3.20;65.61
82245;BME280;71849;50.096;14.458;2023-11-22T08:12:25;100471.69;;;3.50;64.81
82245;BME280;71849;50.096;14.458;2023-11-22T08:14:54;100490.88;;;3.21;65.84
82245;BME280;71849;50.096;14.458;2023-11-22T08:17:23;100508.28;;;3.69;64.79
82245;BME280;71849;50.096;14.458;2023-11-22T08:19:58;100503.88;;;3.68;64.46
82245;BME280;71849;50.096;14.458;2023-11-22T08:22:33;100511.13;;;4.09;63.39
82245;BME280;71849;50.096;14.458;2023-11-22T08:25:02;100521.13;;;3.49;64.49
82245;BME280;71849;50.096;14.458;2023-11-22T08:27:31;100513.41;;;3.28;65.77
82245;BME280;71849;50.096;14.458;2023-11-22T08:30:00;100531.63;;;3.35;65.96
82245;BME280;71849;50.096;14.458;2023-11-22T08:32:30;100540.22;;;3.64;65.09
82245;BME280;71849;50.096;14.458;2023-11-22T08:34:59;100553.31;;;3.33;65.74
82245;BME280;71849;50.096;14.458;2023-11-22T08:37:36;100554.75;;;3.45;65.77
82245;BME280;71849;50.096;14.458;2023-11-22T08:40:08;100553.28;;;3.07;66.11
82245;BME280;71849;50.096;14.458;2023-11-22T08:42:39;100550.13;;;3.12;66.25
82245;BME280;71849;50.096;14.458;2023-11-22T08:45:10;100545.00;;;3.78;65.14
82245;BME280;71849;50.096;14.458;2023-11-22T08:47:39;100539.63;;;3.86;63.61
82245;BME280;71849;50.096;14.458;2023-11-22T08:50:06;100538.00;;;3.93;63.70
82245;BME280;71849;50.096;14.458;2023-11-22T08:52:39;100545.84;;;3.78;64.41
82245;BME280;71849;50.096;14.458;2023-11-22T08:55:11;100542.31;;;4.20;63.33
82245;BME280;71849;50.096;14.458;2023-11-22T08:57:40;100552.25;;;4.19;63.08
82245;BME280;71849;50.096;14.458;2023-11-22T09:00:09;100555.31;;;3.82;63.29
82245;BME280;71849;50.096;14.458;2023-11-22T09:02:44;100565.34;;;4.06;63.10
82245;BME280;71849;50.096;14.458;2023-11-22T09:05:21;100573.41;;;3.98;62.98
82245;BME280;71849;50.096;14.458;2023-11-22T09:07:52;100574.09;;;3.74;63.64
82245;BME280;71849;50.096;14.458;2023-11-22T09:10:21;100568.34;;;4.53;61.25
82245;BME280;71849;50.096;14.458;2023-11-22T09:12:50;100565.34;;;4.06;62.94
82245;BME280;71849;50.096;14.458;2023-11-22T09:15:19;100577.66;;;3.83;63.27
82245;BME280;71849;50.096;14.458;2023-11-22T09:17:52;100575.34;;;4.30;62.60
82245;BME280;71849;50.096;14.458;2023-11-22T09:20:20;100576.91;;;3.99;63.28
82245;BME280;71849;50.096;14.458;2023-11-22T09:22:53;100577.19;;;4.21;62.17
82245;BME280;71849;50.096;14.458;2023-11-22T09:25:23;100580.88;;;3.86;63.33
82245;BME280;71849;50.096;14.458;2023-11-22T09:27:54;100584.44;;;3.87;63.23
82245;BME280;71849;50.096;14.458;2023-11-22T09:30:26;100581.97;;;4.02;62.68
82245;BME280;71849;50.096;14.458;2023-11-22T09:33:02;100580.63;;;4.48;61.53
82245;BME280;71849;50.096;14.458;2023-11-22T09:35:31;100587.75;;;4.65;61.18
82245;BME280;71849;50.096;14.458;2023-11-22T09:38:10;100590.28;;;4.66;61.26
82245;BME280;71849;50.096;14.458;2023-11-22T09:40:44;100577.97;;;4.56;61.43
82245;BME280;71849;50.096;14.458;2023-11-22T09:43:18;100589.81;;;4.21;61.70
82245;BME280;71849;50.096;14.458;2023-11-22T09:45:54;100591.41;;;4.06;62.77
82245;BME280;71849;50.096;14.458;2023-11-22T09:48:23;100593.81;;;3.83;62.90
82245;BME280;71849;50.096;14.458;2023-11-22T09:50:57;100596.31;;;3.76;63.24
82245;BME280;71849;50.096;14.458;2023-11-22T09:53:32;100608.63;;;3.79;62.96
82245;BME280;71849;50.096;14.458;2023-11-22T09:56:03;100605.41;;;3.75;63.50
82245;BME280;71849;50.096;14.458;2023-11-22T09:58:33;100606.91;;;3.78;63.67
82245;BME280;71849;50.096;14.458;2023-11-22T10:01:02;100597.25;;;3.93;63.56
82245;BME280;71849;50.096;14.458;2023-11-22T10:03:31;100613.72;;;4.16;62.55
82245;BME280;71849;50.096;14.458;2023-11-22T10:06:02;100607.09;;;3.76;63.62
82245;BME280;71849;50.096;14.458;2023-11-22T10:08:34;100611.06;;;3.47;64.23
82245;BME280;71849;50.096;14.458;2023-11-22T10:11:04;100619.94;;;3.65;64.01
82245;BME280;71849;50.096;14.458;2023-11-22T10:13:36;100631.00;;;3.54;64.43
82245;BME280;71849;50.096;14.458;2023-11-22T10:16:10;100631.34;;;3.59;64.11
82245;BME280;71849;50.096;14.458;2023-11-22T10:18:41;100639.53;;;3.31;64.71
82245;BME280;71849;50.096;14.458;2023-11-22T10:21:23;100639.53;;;3.49;64.92
82245;BME280;71849;50.096;14.458;2023-11-22T10:23:57;100648.94;;;3.27;65.07
82245;BME280;71849;50.096;14.458;2023-11-22T10:26:27;100654.06;;;3.39;65.11
82245;BME280;71849;50.096;14.458;2023-11-22T10:28:58;100653.91;;;3.83;63.99
82245;BME280;71849;50.096;14.458;2023-11-22T10:31:27;100648.56;;;3.40;64.48
82245;BME280;71849;50.096;14.458;2023-11-22T10:33:56;100638.34;;;3.08;65.51
82245;BME280;71849;50.096;14.458;2023-11-22T10:36:25;100649.03;;;3.00;65.19
82245;BME280;71849;50.096;14.458;2023-11-22T10:38:56;100635.56;;;3.18;64.78
82245;BME280;71849;50.096;14.458;2023-11-22T10:41:26;100627.25;;;3.29;65.09
82245;BME280;71849;50.096;14.458;2023-11-22T10:43:54;100639.63;;;3.40;64.62
82245;BME280;71849;50.096;14.458;2023-11-22T10:46:27;100649.03;;;3.18;65.28
82245;BME280;71849;50.096;14.458;2023-11-22T10:48:56;100652.50;;;3.28;65.01
82245;BME280;71849;50.096;14.458;2023-11-22T10:51:30;100659.31;;;3.22;65.29
82245;BME280;71849;50.096;14.458;2023-11-22T10:54:02;100656.19;;;3.70;63.86
82245;BME280;71849;50.096;14.458;2023-11-22T10:56:36;100664.25;;;3.70;63.66
82245;BME280;71849;50.096;14.458;2023-11-22T10:59:10;100667.91;;;3.44;64.84
82245;BME280;71849;50.096;14.458;2023-11-22T11:01:44;100660.44;;;3.55;64.43
82245;BME280;71849;50.096;14.458;2023-11-22T11:04:19;100658.25;;;3.76;63.47
82245;BME280;71849;50.096;14.458;2023-11-22T11:06:51;100658.16;;;3.68;63.23
82245;BME280;71849;50.096;14.458;2023-11-22T11:09:25;100668.81;;;3.70;63.14
82245;BME280;71849;50.096;14.458;2023-11-22T11:11:58;100666.81;;;3.54;64.08
82245;BME280;71849;50.096;14.458;2023-11-22T11:14:28;100653.38;;;3.80;63.17
82245;BME280;71849;50.096;14.458;2023-11-22T11:16:57;100651.75;;;3.44;64.20
82245;BME280;71849;50.096;14.458;2023-11-22T11:19:27;100656.47;;;3.24;64.34
82245;BME280;71849;50.096;14.458;2023-11-22T11:21:56;100646.47;;;4.03;62.18
82245;BME280;71849;50.096;14.458;2023-11-22T11:24:28;100643.25;;;4.00;61.75
82245;BME280;71849;50.096;14.458;2023-11-22T11:27:02;100635.75;;;3.60;62.90
82245;BME280;71849;50.096;14.458;2023-11-22T11:29:31;100639.34;;;3.94;61.99
82245;BME280;71849;50.096;14.458;2023-11-22T11:32:02;100623.91;;;4.04;61.69
82245;BME280;71849;50.096;14.458;2023-11-22T11:34:31;100640.84;;;4.72;59.86
82245;BME280;71849;50.096;14.458;2023-11-22T11:37:03;100649.38;;;4.52;60.15
82245;BME280;71849;50.096;14.458;2023-11-22T11:39:34;100646.84;;;4.50;59.99
82245;BME280;71849;50.096;14.458;2023-11-22T11:42:11;100643.44;;;4.40;60.21
82245;BME280;71849;50.096;14.458;2023-11-22T11:44:51;100647.53;;;4.52;59.45
82245;BME280;71849;50.096;14.458;2023-11-22T11:47:32;100643.59;;;4.38;60.22
82245;BME280;71849;50.096;14.458;2023-11-22T11:50:03;100642.25;;;3.75;62.12
82245;BME280;71849;50.096;14.458;2023-11-22T11:52:32;100649.69;;;3.81;62.24
82245;BME280;71849;50.096;14.458;2023-11-22T11:55:04;100652.06;;;3.84;62.41
82245;BME280;71849;50.096;14.458;2023-11-22T11:57:33;100647.69;;;4.17;61.24
82245;BME280;71849;50.096;14.458;2023-11-22T12:00:03;100649.16;;;4.37;60.40
82245;BME280;71849;50.096;14.458;2023-11-22T12:02:32;100648.94;;;4.22;60.79
82245;BME280;71849;50.096;14.458;2023-11-22T12:05:01;100654.88;;;4.00;61.18
82245;BME280;71849;50.096;14.458;2023-11-22T12:07:34;100654.03;;;4.08;61.02
82245;BME280;71849;50.096;14.458;2023-11-22T12:10:06;100656.72;;;4.33;61.00
82245;BME280;71849;50.096;14.458;2023-11-22T12:12:35;100663.50;;;4.37;60.43
82245;BME280;71849;50.096;14.458;2023-11-22T12:15:06;100674.25;;;4.04;61.61
82245;BME280;71849;50.096;14.458;2023-11-22T12:17:34;100671.44;;;4.13;61.94
82245;BME280;71849;50.096;14.458;2023-11-22T12:20:14;100676.53;;;4.24;61.27
82245;BME280;71849;50.096;14.458;2023-11-22T12:22:47;100665.31;;;3.77;62.71
82245;BME280;71849;50.096;14.458;2023-11-22T12:25:18;100683.75;;;3.64;63.20
82245;BME280;71849;50.096;14.458;2023-11-22T12:27:48;100687.13;;;3.92;62.60
82245;BME280;71849;50.096;14.458;2023-11-22T12:30:30;100682.75;;;3.91;62.28
82245;BME280;71849;50.096;14.458;2023-11-22T12:33:04;100694.63;;;3.63;62.89
82245;BME280;71849;50.096;14.458;2023-11-22T12:35:34;100694.38;;;3.92;62.21
82245;BME280;71849;50.096;14.458;2023-11-22T12:38:05;100694.06;;;3.77;62.48
82245;BME280;71849;50.096;14.458;2023-11-22T12:40:34;100698.59;;;3.33;63.79
82245;BME280;71849;50.096;14.458;2023-11-22T12:43:04;100711.69;;;3.71;62.70
82245;BME280;71849;50.096;14.458;2023-11-22T12:45:33;100702.94;;;3.69;62.24
82245;BME280;71849;50.096;14.458;2023-11-22T12:48:19;100691.03;;;3.98;61.53
82245;BME280;71849;50.096;14.458;2023-11-22T12:50:49;100681.59;;;3.94;61.55
82245;BME280;71849;50.096;14.458;2023-11-22T12:53:18;100686.16;;;4.27;60.94
82245;BME280;71849;50.096;14.458;2023-11-22T12:55:50;100679.69;;;4.46;60.32
82245;BME280;71849;50.096;14.458;2023-11-22T12:58:20;100669.13;;;4.26;60.67
82245;BME280;71849;50.096;14.458;2023-11-22T13:00:50;100683.31;;;4.03;60.92
82245;BME280;71849;50.096;14.458;2023-11-22T13:03:24;100664.81;;;4.33;60.62
82245;BME280;71849;50.096;14.458;2023-11-22T13:05:55;100652.19;;;4.34;60.34